Time;durP1;ratioP1;P1;durP2;ratioP2;P2;SDS_P1;SDS_P2;PMS_P1;PMS_P2;Temp;Humidity;BMP_temperature;BMP_pressure;BME280_temperature;BME280_humidity;BME280_pressure;Samples;Min_cycle;Max_cycle;Signal;HPM_P1;HPM_P2
2024/03/12 00:22:57;;;;;;;2.17;1.10;;;;;;;10.83;64.66;94452.88;5145909;27;20748;-77
2024/03/12 00:25:23;;;;;;;2.13;0.90;;;;;;;10.87;65.29;94472.78;5104741;28;20036;-77
2024/03/12 00:27:48;;;;;;;4.57;1.33;;;;;;;10.84;65.82;94473.69;5103731;28;20546;-77
2024/03/12 00:30:15;;;;;;;3.15;1.30;;;;;;;10.75;67.28;94484.63;5104993;28;20453;-78
2024/03/12 00:32:41;;;;;;;4.75;1.80;;;;;;;10.81;67.52;94485.56;5101984;28;20524;-78
2024/03/12 00:35:10;;;;;;;2.92;1.33;;;;;;;10.78;68.00;94464.50;5105141;28;20465;-77
2024/03/12 00:37:36;;;;;;;4.45;1.73;;;;;;;10.81;68.25;94430.59;5103707;28;20035;-77
2024/03/12 00:40:02;;;;;;;4.55;1.92;;;;;;;10.79;68.41;94388.28;5104731;28;20024;-78
2024/03/12 00:42:28;;;;;;;5.43;1.67;;;;;;;10.77;68.26;94366.72;5102916;28;20115;-79
2024/03/12 00:44:53;;;;;;;2.70;1.58;;;;;;;10.76;68.16;94408.41;5103870;28;20193;-77
2024/03/12 00:47:21;;;;;;;2.03;1.20;;;;;;;10.68;68.18;94427.16;5105077;28;20106;-78
2024/03/12 00:49:50;;;;;;;3.63;1.02;;;;;;;10.64;68.10;94430.03;5101682;28;20016;-79
2024/03/12 00:52:17;;;;;;;1.67;0.80;;;;;;;10.69;67.90;94409.44;5104406;28;20109;-77
2024/03/12 00:54:45;;;;;;;2.60;0.88;;;;;;;10.59;67.83;94394.09;5085156;28;20428;-79
2024/03/12 00:57:11;;;;;;;5.03;1.05;;;;;;;10.51;67.93;94379.13;5104633;28;20028;-76
2024/03/12 00:59:37;;;;;;;2.67;0.80;;;;;;;10.49;67.71;94373.28;5103430;28;20700;-76
2024/03/12 01:02:02;;;;;;;2.55;0.95;;;;;;;10.48;67.64;94358.00;5103676;28;20103;-76
2024/03/12 01:04:29;;;;;;;2.75;0.88;;;;;;;10.33;67.95;94350.31;5103951;28;20024;-77
2024/03/12 01:06:55;;;;;;;2.70;1.67;;;;;;;10.29;67.73;94346.94;5102809;28;20047;-77
2024/03/12 01:09:21;;;;;;;1.27;0.90;;;;;;;10.15;67.20;94333.69;5103861;28;20149;-76
2024/03/12 01:11:47;;;;;;;1.90;0.80;;;;;;;9.91;68.37;94332.59;5102335;28;20038;-76
2024/03/12 01:14:13;;;;;;;2.45;0.75;;;;;;;9.67;69.07;94321.31;5104381;28;20016;-76
2024/03/12 01:16:39;;;;;;;2.47;1.00;;;;;;;9.51;69.52;94320.25;5103010;28;20031;-76
2024/03/12 01:19:07;;;;;;;2.42;1.10;;;;;;;9.44;70.39;94327.97;5104129;28;20019;-77
2024/03/12 01:21:36;;;;;;;2.30;1.10;;;;;;;9.34;70.90;94327.09;5103497;28;20071;-77
2024/03/12 01:24:05;;;;;;;1.83;1.00;;;;;;;9.35;71.31;94327.88;5088975;28;20103;-78
2024/03/12 01:26:30;;;;;;;2.67;1.20;;;;;;;9.12;72.46;94340.00;5090990;28;20019;-76
2024/03/12 01:28:56;;;;;;;2.22;1.20;;;;;;;9.04;73.04;94339.47;5087308;28;20432;-79
2024/03/12 01:31:22;;;;;;;3.33;1.30;;;;;;;8.99;73.36;94316.13;5089270;28;20024;-75
2024/03/12 01:33:49;;;;;;;3.35;1.20;;;;;;;9.11;73.65;94335.72;5088547;28;20055;-77
2024/03/12 01:36:34;;;;;;;2.10;1.50;;;;;;;9.10;73.34;94332.22;5090412;28;20024;-76
2024/03/12 01:39:04;;;;;;;2.83;1.90;;;;;;;9.07;73.45;94321.38;5088638;28;20073;-78
2024/03/12 01:41:32;;;;;;;4.95;2.00;;;;;;;9.07;73.69;94310.41;5089033;28;20120;-78
2024/03/12 01:44:02;;;;;;;4.20;2.10;;;;;;;8.99;73.98;94310.63;5089201;28;20020;-77
2024/03/12 01:46:30;;;;;;;4.70;2.22;;;;;;;9.00;73.96;94319.63;5087372;28;20020;-77
2024/03/12 01:48:58;;;;;;;3.08;2.25;;;;;;;8.86;74.13;94314.59;5089971;28;20020;-76
2024/03/12 01:51:27;;;;;;;3.33;2.05;;;;;;;8.75;74.12;94314.94;5089043;28;20497;-75
2024/03/12 01:53:53;;;;;;;4.40;2.55;;;;;;;8.76;74.31;94300.03;5088865;28;20036;-77
2024/03/12 01:56:18;;;;;;;3.63;2.03;;;;;;;8.86;74.18;94306.38;5089863;28;20020;-77
2024/03/12 01:58:44;;;;;;;2.53;1.58;;;;;;;8.77;73.71;94296.06;5088741;28;20073;-76
2024/03/12 02:01:10;;;;;;;3.85;1.65;;;;;;;8.78;73.71;94267.50;5088686;28;20036;-75
2024/03/12 02:03:35;;;;;;;2.35;1.70;;;;;;;8.73;73.62;94268.81;5087256;28;20016;-78
2024/03/12 02:06:01;;;;;;;3.42;1.60;;;;;;;8.77;73.69;94279.63;5089967;28;20447;-77
2024/03/12 02:08:26;;;;;;;2.83;1.67;;;;;;;8.75;73.50;94285.56;5088357;28;20024;-77
2024/03/12 02:10:52;;;;;;;2.97;1.90;;;;;;;8.75;73.35;94287.53;5088178;28;20028;-77
2024/03/12 02:13:17;;;;;;;6.82;1.60;;;;;;;8.77;73.02;94277.69;5088556;28;20032;-78
2024/03/12 02:15:43;;;;;;;3.90;1.63;;;;;;;8.87;73.00;94277.75;5088694;28;20077;-77
2024/03/12 02:18:09;;;;;;;2.42;1.40;;;;;;;8.92;73.12;94272.50;5089326;28;20050;-78
2024/03/12 02:20:35;;;;;;;2.38;1.45;;;;;;;9.01;72.62;94277.31;5087880;28;20071;-76
2024/03/12 02:23:00;;;;;;;2.03;1.40;;;;;;;9.03;72.27;94278.38;5089134;28;20146;-77
2024/03/12 02:25:26;;;;;;;2.35;1.50;;;;;;;9.09;72.21;94286.81;5086563;28;20028;-77
2024/03/12 02:27:51;;;;;;;3.15;1.50;;;;;;;9.13;72.20;94292.97;5089320;28;20024;-77
2024/03/12 02:30:17;;;;;;;3.22;1.70;;;;;;;9.16;72.14;94294.81;5086981;28;20031;-77
2024/03/12 02:32:46;;;;;;;2.90;1.40;;;;;;;9.24;71.86;94284.38;5088913;28;20024;-76
2024/03/12 02:35:11;;;;;;;3.70;2.20;;;;;;;9.27;71.75;94278.75;5088232;28;20055;-76
2024/03/12 02:37:40;;;;;;;4.75;2.40;;;;;;;9.28;71.62;94274.78;5088044;28;20059;-78
2024/03/12 02:40:09;;;;;;;4.68;1.77;;;;;;;9.33;71.67;94273.47;5088877;28;20024;-77
2024/03/12 02:42:36;;;;;;;3.58;2.28;;;;;;;9.38;71.25;94275.66;5087725;28;20044;-77
2024/03/12 02:45:01;;;;;;;4.60;2.30;;;;;;;9.40;71.39;94288.91;5089163;28;20397;-78
2024/03/12 02:47:26;;;;;;;2.78;1.83;;;;;;;9.37;71.33;94278.84;5088378;28;20024;-78
2024/03/12 02:49:52;;;;;;;2.97;1.90;;;;;;;9.38;71.15;94275.66;5089122;28;20132;-77
2024/03/12 02:52:17;;;;;;;3.72;2.05;;;;;;;9.42;71.05;94273.56;5086764;28;20020;-77
2024/03/12 02:54:43;;;;;;;4.35;2.53;;;;;;;9.40;71.11;94277.94;5087793;28;20081;-77
2024/03/12 02:57:08;;;;;;;6.22;2.30;;;;;;;9.34;71.29;94296.19;5088567;28;20182;-75
2024/03/12 02:59:34;;;;;;;3.53;1.80;;;;;;;9.37;71.11;94298.81;5086003;28;20031;-76
2024/03/12 03:02:00;;;;;;;3.28;1.40;;;;;;;9.40;71.03;94297.91;5088485;28;20542;-76
2024/03/12 03:04:27;;;;;;;2.50;1.23;;;;;;;9.37;71.08;94303.53;5087536;28;20023;-77
2024/03/12 03:06:52;;;;;;;4.15;1.63;;;;;;;9.40;71.08;94305.38;5088480;28;20080;-77
2024/03/12 03:09:18;;;;;;;4.35;1.88;;;;;;;9.42;70.99;94311.97;5087842;28;20024;-77
2024/03/12 03:11:45;;;;;;;2.47;1.40;;;;;;;9.40;70.83;94308.13;5086878;28;20057;-77
2024/03/12 03:14:10;;;;;;;3.63;1.80;;;;;;;9.36;71.30;94307.50;5086675;28;20600;-76
2024/03/12 03:16:35;;;;;;;3.72;2.15;;;;;;;9.34;71.45;94304.41;5085372;28;20590;-78
2024/03/12 03:19:01;;;;;;;4.47;2.80;;;;;;;9.33;71.17;94311.88;5084323;28;20028;-76
2024/03/12 03:21:26;;;;;;;4.32;2.55;;;;;;;9.35;71.20;94303.97;5066227;28;20052;-76
2024/03/12 03:23:52;;;;;;;3.92;2.38;;;;;;;9.36;71.25;94313.75;5075851;28;20101;-75
2024/03/12 03:26:18;;;;;;;5.15;2.63;;;;;;;9.37;71.11;94303.53;5085215;28;20556;-76
2024/03/12 03:28:44;;;;;;;4.47;2.75;;;;;;;9.42;71.01;94314.69;5069995;28;20138;-77
2024/03/12 03:31:10;;;;;;;5.53;2.97;;;;;;;9.41;71.06;94309.66;5086249;28;20393;-77
2024/03/12 03:33:40;;;;;;;6.05;3.20;;;;;;;9.44;71.04;94314.25;5087271;28;20085;-77
2024/03/12 03:36:05;;;;;;;4.35;2.95;;;;;;;9.29;71.37;94300.28;5087986;28;20062;-75
2024/03/12 03:38:31;;;;;;;4.35;3.28;;;;;;;9.38;71.22;94316.78;5085430;28;20028;-77
2024/03/12 03:40:56;;;;;;;6.15;3.78;;;;;;;9.39;71.15;94309.31;5088032;28;20085;-76
2024/03/12 03:43:21;;;;;;;6.18;3.78;;;;;;;9.41;71.24;94317.91;5086476;28;20030;-78
2024/03/12 03:45:47;;;;;;;7.40;4.57;;;;;;;9.35;71.31;94320.44;5088084;28;20429;-76
2024/03/12 03:48:12;;;;;;;5.95;4.28;;;;;;;9.39;71.13;94325.78;5087031;28;20016;-77
2024/03/12 03:50:38;;;;;;;5.30;3.35;;;;;;;9.30;71.72;94321.75;5087512;28;20020;-76
2024/03/12 03:53:03;;;;;;;6.75;4.82;;;;;;;9.32;71.61;94315.81;5087588;28;20024;-76
2024/03/12 03:55:29;;;;;;;5.22;4.00;;;;;;;9.32;71.58;94327.56;5086679;28;20028;-76
2024/03/12 03:57:54;;;;;;;6.40;4.18;;;;;;;9.32;71.77;94327.56;5087271;28;20028;-76
2024/03/12 04:00:31;;;;;;;6.32;3.60;;;;;;;9.30;71.80;94330.00;5086158;28;20016;-76
2024/03/12 04:02:56;;;;;;;6.55;4.32;;;;;;;9.29;71.72;94320.22;5086062;28;20031;-76
2024/03/12 04:05:22;;;;;;;6.90;4.40;;;;;;;9.30;71.62;94313.53;5067829;28;20024;-77
2024/03/12 04:07:48;;;;;;;6.10;4.22;;;;;;;9.29;71.77;94305.75;5087327;28;20111;-77
2024/03/12 04:10:15;;;;;;;6.25;3.83;;;;;;;9.32;71.56;94305.63;5086903;28;20474;-76
2024/03/12 04:12:46;;;;;;;8.55;4.72;;;;;;;9.40;70.94;94310.84;5086167;28;20016;-76
2024/03/12 04:15:12;;;;;;;8.20;4.75;;;;;;;9.43;70.94;94301.75;5069448;28;20024;-77
2024/03/12 04:17:38;;;;;;;6.15;4.45;;;;;;;9.35;71.01;94293.00;5086157;28;20112;-76
2024/03/12 04:20:09;;;;;;;7.03;4.68;;;;;;;9.35;70.93;94303.97;5087884;28;20016;-77
2024/03/12 04:22:34;;;;;;;8.55;3.72;;;;;;;9.35;70.92;94303.97;5046031;28;20112;-76
2024/03/12 04:25:01;;;;;;;6.00;3.45;;;;;;;9.36;70.72;94305.50;5046915;28;20155;-76
2024/03/12 04:27:27;;;;;;;7.18;3.38;;;;;;;9.35;70.76;94303.19;5047245;28;20025;-77
2024/03/12 04:29:52;;;;;;;5.65;3.80;;;;;;;9.38;70.68;94303.06;5059855;28;20024;-77
2024/03/12 04:32:17;;;;;;;6.95;4.13;;;;;;;9.30;70.25;94299.81;5087332;28;20113;-77
2024/03/12 04:34:44;;;;;;;6.13;4.05;;;;;;;9.26;70.38;94301.16;5086162;28;20030;-77
2024/03/12 04:37:12;;;;;;;7.10;4.53;;;;;;;9.24;70.33;94301.59;5087353;28;20378;-77
2024/03/12 04:39:38;;;;;;;6.05;4.30;;;;;;;9.16;70.50;94297.53;5086387;28;20025;-77
2024/03/12 04:42:09;;;;;;;5.32;3.92;;;;;;;9.13;70.76;94294.94;5087429;28;20020;-77
2024/03/12 04:44:34;;;;;;;6.18;4.20;;;;;;;8.95;70.98;94274.38;5086971;28;20481;-77
2024/03/12 04:47:00;;;;;;;6.45;4.43;;;;;;;9.03;71.02;94289.34;5086785;28;20097;-77
2024/03/12 04:49:26;;;;;;;7.25;4.45;;;;;;;8.98;70.99;94283.66;5087476;28;20020;-76
2024/03/12 04:51:52;;;;;;;5.18;4.07;;;;;;;9.00;70.60;94289.47;5067743;28;20028;-76
2024/03/12 04:54:18;;;;;;;6.60;4.30;;;;;;;8.96;70.72;94281.38;5086986;28;20042;-77
2024/03/12 04:56:48;;;;;;;5.80;3.97;;;;;;;8.97;70.81;94284.88;5085845;28;20020;-77
2024/03/12 04:59:16;;;;;;;5.18;4.05;;;;;;;8.97;70.73;94282.91;5089198;28;20093;-75
2024/03/12 05:01:44;;;;;;;7.80;4.38;;;;;;;8.94;70.93;94280.25;5090254;28;20494;-76
2024/03/12 05:04:13;;;;;;;8.13;6.22;;;;;;;8.90;71.08;94285.13;5089139;28;20031;-76
2024/03/12 05:06:39;;;;;;;7.55;4.97;;;;;;;8.89;71.25;94289.84;5089385;28;20039;-77
2024/03/12 05:09:06;;;;;;;7.45;5.15;;;;;;;8.90;71.03;94296.09;5088108;28;20130;-79
2024/03/12 05:11:32;;;;;;;7.30;5.35;;;;;;;8.90;71.19;94287.84;5090604;28;20056;-79
2024/03/12 05:13:57;;;;;;;6.50;4.60;;;;;;;8.88;71.34;94291.03;5088724;28;20028;-78
2024/03/12 05:16:26;;;;;;;7.28;4.45;;;;;;;8.91;71.35;94292.91;5090415;28;20411;-77
2024/03/12 05:18:51;;;;;;;8.25;4.80;;;;;;;8.94;71.01;94292.00;5089143;28;20125;-79
2024/03/12 05:21:17;;;;;;;9.52;5.70;;;;;;;8.92;71.43;94288.19;5088508;28;20075;-78
2024/03/12 05:23:42;;;;;;;6.97;4.93;;;;;;;8.95;71.09;94288.06;5090602;28;20028;-78
2024/03/12 05:26:08;;;;;;;7.82;5.47;;;;;;;8.98;71.16;94292.66;5089206;28;20580;-78
2024/03/12 05:28:35;;;;;;;7.60;5.03;;;;;;;9.03;70.69;94294.06;5090842;28;20486;-78
2024/03/12 05:31:01;;;;;;;7.45;5.13;;;;;;;9.07;70.57;94292.00;5088940;28;20050;-79
2024/03/12 05:33:29;;;;;;;7.45;5.38;;;;;;;9.17;70.36;94299.06;5089915;28;20047;-76
2024/03/12 05:35:56;;;;;;;7.53;5.00;;;;;;;9.27;69.78;94300.69;5088572;28;20040;-76
2024/03/12 05:38:32;;;;;;;6.43;4.70;;;;;;;9.26;69.93;94306.63;5088651;28;20035;-76
2024/03/12 05:49:08;;;;;;;5.18;3.83;;;;;;;9.52;68.17;94307.31;5089218;28;20030;-77
2024/03/12 05:51:36;;;;;;;6.30;3.47;;;;;;;9.55;68.13;94311.91;5089632;28;20051;-76
2024/03/12 05:54:01;;;;;;;6.43;2.83;;;;;;;9.52;67.71;94313.56;5089632;28;20132;-77
2024/03/12 05:56:27;;;;;;;3.72;2.65;;;;;;;9.58;67.63;94311.78;5088164;28;20464;-77
2024/03/12 05:58:52;;;;;;;5.13;3.33;;;;;;;9.70;66.72;94307.47;5089965;28;20023;-77
2024/03/12 06:01:18;;;;;;;7.93;3.40;;;;;;;9.75;66.51;94320.63;5088255;28;20434;-77
2024/03/12 06:03:43;;;;;;;4.15;2.90;;;;;;;9.76;66.06;94316.66;5089784;28;20569;-77
2024/03/12 06:06:09;;;;;;;3.80;2.60;;;;;;;9.76;65.80;94319.41;5087884;28;20077;-76
2024/03/12 06:08:35;;;;;;;4.93;2.50;;;;;;;9.79;66.14;94307.50;5089573;28;20029;-78
2024/03/12 06:11:00;;;;;;;3.95;2.50;;;;;;;9.83;66.12;94316.41;5089270;28;20024;-78
2024/03/12 06:13:27;;;;;;;3.50;2.38;;;;;;;9.90;65.86;94312.63;5087128;28;20020;-78
2024/03/12 06:15:53;;;;;;;3.45;2.45;;;;;;;9.91;65.76;94307.91;5088814;28;20116;-77
2024/03/12 06:18:18;;;;;;;3.67;2.35;;;;;;;9.97;65.80;94320.59;5088465;28;20497;-78
2024/03/12 06:20:46;;;;;;;3.58;2.30;;;;;;;10.02;65.59;94311.78;5067931;28;20033;-77
2024/03/12 06:23:15;;;;;;;5.13;2.72;;;;;;;10.19;65.14;94319.81;5087700;28;20035;-77
2024/03/12 06:25:41;;;;;;;4.22;2.28;;;;;;;10.34;64.44;94318.09;5087896;28;20032;-76
2024/03/12 06:28:07;;;;;;;3.58;2.17;;;;;;;10.34;64.37;94313.38;5088255;28;20101;-78
2024/03/12 06:30:35;;;;;;;3.22;2.50;;;;;;;10.37;64.05;94317.97;5087358;28;20510;-75
2024/03/12 06:33:06;;;;;;;4.20;2.58;;;;;;;10.41;64.03;94319.81;5089236;28;20020;-77
2024/03/12 06:35:32;;;;;;;5.55;2.17;;;;;;;10.48;64.15;94314.81;5088024;28;20474;-77
2024/03/12 06:37:58;;;;;;;4.35;2.33;;;;;;;10.57;63.50;94317.59;5087941;28;20076;-77
2024/03/12 06:40:25;;;;;;;2.80;2.10;;;;;;;10.60;63.12;94318.69;5087406;28;20113;-78
2024/03/12 06:42:55;;;;;;;3.80;2.80;;;;;;;10.68;63.54;94319.19;5087384;28;20024;-77
2024/03/12 06:45:21;;;;;;;3.53;2.38;;;;;;;10.77;63.02;94328.22;5087343;28;20502;-76
2024/03/12 06:47:48;;;;;;;5.35;2.38;;;;;;;10.85;62.82;94329.47;5087075;28;20026;-75
2024/03/12 06:50:14;;;;;;;3.97;2.50;;;;;;;10.91;62.71;94332.41;5087551;28;20055;-76
2024/03/12 06:52:41;;;;;;;3.33;2.17;;;;;;;11.00;62.11;94329.66;5086410;28;20077;-75
2024/03/12 06:55:12;;;;;;;2.50;1.90;;;;;;;11.07;61.90;94334.13;5088538;28;20030;-75
2024/03/12 06:57:47;;;;;;;2.60;1.60;;;;;;;11.07;61.36;94332.16;5086419;28;20317;-73
2024/03/12 07:00:23;;;;;;;3.03;1.73;;;;;;;11.06;61.21;94332.59;5087102;28;20107;-77
2024/03/12 07:02:52;;;;;;;4.22;2.35;;;;;;;11.08;61.09;94335.66;5088299;28;20100;-75
2024/03/12 07:05:18;;;;;;;4.05;2.38;;;;;;;11.08;61.38;94330.94;5087518;28;20371;-74
2024/03/12 07:07:46;;;;;;;3.58;2.70;;;;;;;11.14;61.61;94334.59;5088704;28;20462;-74
2024/03/12 07:10:12;;;;;;;4.35;2.92;;;;;;;11.23;61.83;94338.59;5086819;28;20120;-75
2024/03/12 07:12:37;;;;;;;4.53;3.30;;;;;;;11.23;61.77;94335.84;5088057;28;20099;-74
2024/03/12 07:15:05;;;;;;;4.70;2.83;;;;;;;11.29;61.73;94337.53;5086737;28;20020;-74
2024/03/12 07:17:30;;;;;;;3.53;3.05;;;;;;;11.44;61.52;94337.72;5088330;28;20417;-73
2024/03/12 07:19:58;;;;;;;5.65;3.40;;;;;;;11.55;61.48;94345.53;5087187;28;20482;-74
2024/03/12 07:22:25;;;;;;;2.92;2.42;;;;;;;11.65;61.19;94336.06;5086921;28;20514;-74
2024/03/12 07:24:51;;;;;;;2.80;2.20;;;;;;;11.75;60.56;94336.81;5088217;28;20028;-74
2024/03/12 07:27:18;;;;;;;3.17;1.92;;;;;;;11.94;58.96;94330.88;5086829;28;20051;-74
2024/03/12 07:29:43;;;;;;;3.80;2.42;;;;;;;12.03;59.27;94337.59;5088301;28;20501;-74
2024/03/12 07:32:09;;;;;;;5.13;2.92;;;;;;;12.04;59.77;94334.38;5086350;28;20051;-74
2024/03/12 07:34:37;;;;;;;4.57;3.20;;;;;;;12.17;59.28;94334.22;5088067;28;20088;-74
2024/03/12 07:37:02;;;;;;;5.22;3.58;;;;;;;12.22;59.44;94339.13;5087011;28;20121;-74
2024/03/12 07:39:37;;;;;;;6.50;3.80;;;;;;;12.33;59.39;94344.13;5087357;28;20116;-74
2024/03/12 07:42:09;;;;;;;5.47;4.32;;;;;;;12.39;59.89;94343.06;5088197;28;20024;-74
2024/03/12 07:44:35;;;;;;;5.90;5.35;;;;;;;12.45;59.34;94348.72;5086446;28;20077;-75
2024/03/12 07:47:03;;;;;;;5.70;4.53;;;;;;;12.53;59.56;94343.66;5088024;28;20071;-74
2024/03/12 07:49:36;;;;;;;5.30;4.65;;;;;;;12.56;58.85;94337.97;5086095;28;20024;-75
2024/03/12 07:52:02;;;;;;;4.60;4.20;;;;;;;12.65;58.41;94351.72;5087878;28;20473;-75
2024/03/12 07:54:28;;;;;;;10.40;4.47;;;;;;;12.75;57.71;94350.47;5086981;28;20107;-73
2024/03/12 07:56:54;;;;;;;7.30;4.47;;;;;;;12.93;57.36;94355.16;5087123;28;20024;-74
2024/03/12 07:59:22;;;;;;;7.35;5.10;;;;;;;13.14;57.10;94355.38;5086465;28;20032;-74
2024/03/12 08:01:49;;;;;;;7.80;4.90;;;;;;;13.36;56.94;94350.38;5086219;28;20498;-76
2024/03/12 08:04:15;;;;;;;5.35;4.00;;;;;;;13.54;56.18;94355.03;5087585;28;20413;-74
2024/03/12 08:06:40;;;;;;;7.63;4.00;;;;;;;13.62;56.36;94355.44;5086220;28;20024;-76
2024/03/12 08:09:07;;;;;;;10.50;5.18;;;;;;;13.76;55.32;94351.94;5087798;28;20497;-74
2024/03/12 08:11:33;;;;;;;4.55;2.70;;;;;;;13.94;54.79;94346.31;5086639;28;20021;-74
2024/03/12 08:13:59;;;;;;;4.82;3.20;;;;;;;14.09;54.43;94344.31;5087184;28;20026;-74
2024/03/12 08:16:24;;;;;;;5.03;2.97;;;;;;;14.18;53.76;94340.72;5087298;28;20028;-74
2024/03/12 08:18:50;;;;;;;7.35;3.88;;;;;;;14.30;53.43;94336.91;5086321;28;20061;-75
2024/03/12 08:21:16;;;;;;;5.18;3.05;;;;;;;14.45;53.11;94336.16;5087125;28;20127;-75
2024/03/12 08:23:41;;;;;;;7.20;2.50;;;;;;;14.64;51.31;94334.00;5086125;28;20024;-76
2024/03/12 08:26:07;;;;;;;4.53;2.88;;;;;;;14.67;51.12;94335.78;5087459;28;20089;-75
2024/03/12 08:28:33;;;;;;;5.85;3.33;;;;;;;14.65;51.33;94332.75;5086212;28;20134;-74
2024/03/12 08:30:59;;;;;;;3.33;2.60;;;;;;;14.79;51.29;94331.97;5069175;28;20043;-72
2024/03/12 08:33:24;;;;;;;3.00;2.20;;;;;;;14.99;50.93;94339.59;5089246;28;20031;-77
2024/03/12 08:35:50;;;;;;;4.82;2.55;;;;;;;15.21;50.38;94331.63;5090591;28;20031;-76
2024/03/12 08:38:16;;;;;;;4.25;2.33;;;;;;;15.31;49.84;94335.78;5091421;28;20067;-77
2024/03/12 08:40:42;;;;;;;3.90;2.20;;;;;;;15.42;49.77;94340.69;5089875;28;20081;-76
2024/03/12 08:43:08;;;;;;;6.78;3.28;;;;;;;15.88;49.59;94345.59;5091352;28;20110;-76
2024/03/12 08:45:35;;;;;;;3.50;2.40;;;;;;;16.10;48.99;94336.78;5088751;28;20173;-78
2024/03/12 08:48:03;;;;;;;3.05;2.53;;;;;;;16.30;48.06;94327.69;5091367;28;20184;-76
2024/03/12 08:50:29;;;;;;;5.88;3.30;;;;;;;16.70;48.21;94344.25;5090094;28;20024;-76
2024/03/12 08:52:54;;;;;;;5.88;1.98;;;;;;;16.83;46.95;94338.28;5090797;28;20024;-77
2024/03/12 08:55:20;;;;;;;7.95;2.08;;;;;;;16.76;47.22;94338.75;5091233;28;20027;-76
2024/03/12 08:57:45;;;;;;;6.00;2.63;;;;;;;16.76;47.33;94343.53;5088412;28;20028;-76
2024/03/12 09:00:11;;;;;;;5.53;3.20;;;;;;;16.80;46.75;94339.25;5089366;28;20093;-76
2024/03/12 09:02:39;;;;;;;3.13;1.85;;;;;;;17.01;46.26;94333.63;5089444;28;20448;-76
2024/03/12 09:05:09;;;;;;;6.72;2.40;;;;;;;17.33;45.43;94340.69;5089906;28;20442;-85
2024/03/12 09:07:37;;;;;;;4.05;2.22;;;;;;;17.55;44.67;94326.16;5088958;28;20024;-85
2024/03/12 09:10:08;;;;;;;4.78;2.17;;;;;;;17.44;44.45;94320.53;5089367;28;20024;-76
2024/03/12 09:12:36;;;;;;;5.90;2.47;;;;;;;17.44;44.45;94328.88;5089032;28;20067;-76
2024/03/12 09:15:02;;;;;;;4.13;2.10;;;;;;;17.37;44.09;94318.22;5089577;28;20117;-74
2024/03/12 09:17:28;;;;;;;9.48;3.33;;;;;;;17.53;44.31;94317.56;5090556;28;20478;-76
2024/03/12 09:19:53;;;;;;;6.28;3.42;;;;;;;17.74;44.14;94307.84;5089446;28;20031;-74
2024/03/12 09:22:19;;;;;;;8.10;2.40;;;;;;;18.03;42.96;94317.81;5090310;28;20059;-75
2024/03/12 09:24:44;;;;;;;3.80;2.20;;;;;;;18.24;42.13;94318.38;5089337;28;20028;-74
2024/03/12 09:27:10;;;;;;;5.40;2.38;;;;;;;18.42;42.49;94322.72;5090692;28;20110;-77
2024/03/12 09:29:35;;;;;;;6.30;2.63;;;;;;;18.35;42.79;94316.88;5090088;28;20032;-75
2024/03/12 09:32:03;;;;;;;3.47;2.00;;;;;;;18.25;43.74;94316.34;5089467;28;20023;-76
2024/03/12 09:34:30;;;;;;;5.82;2.58;;;;;;;18.10;44.36;94321.34;5090310;28;20024;-75
2024/03/12 09:36:55;;;;;;;6.15;2.00;;;;;;;17.61;45.12;94312.31;5089067;28;20035;-75
2024/03/12 09:39:24;;;;;;;2.90;1.60;;;;;;;16.84;45.24;94314.81;5090154;28;20020;-76
2024/03/12 09:41:53;;;;;;;4.50;1.60;;;;;;;15.83;47.08;94291.66;5088815;28;20027;-76
2024/03/12 09:44:21;;;;;;;5.30;2.33;;;;;;;15.71;49.21;94303.06;5089535;28;20024;-75
2024/03/12 09:46:47;;;;;;;2.85;1.45;;;;;;;15.28;49.03;94295.22;5088408;28;20032;-76
2024/03/12 09:49:13;;;;;;;4.55;1.52;;;;;;;15.21;49.15;94308.72;5088944;28;20076;-74
2024/03/12 09:51:39;;;;;;;4.55;1.40;;;;;;;14.54;49.57;94294.59;5088633;28;20028;-75
2024/03/12 09:54:05;;;;;;;4.63;1.50;;;;;;;14.19;50.92;94289.72;5088633;28;20077;-74
2024/03/12 09:56:33;;;;;;;4.63;1.58;;;;;;;13.57;53.22;94287.03;5089731;28;20103;-76
2024/03/12 09:58:59;;;;;;;3.72;1.58;;;;;;;13.15;54.54;94285.16;5087404;28;20024;-75
2024/03/12 10:01:24;;;;;;;4.25;2.38;;;;;;;13.18;52.33;94278.69;5089506;28;20084;-76
2024/03/12 10:03:53;;;;;;;2.70;1.48;;;;;;;12.99;52.23;94289.06;5089301;28;20027;-76
2024/03/12 10:06:18;;;;;;;4.18;1.42;;;;;;;12.88;52.29;94284.06;5089367;28;20028;-76
2024/03/12 10:08:44;;;;;;;1.35;0.82;;;;;;;12.82;49.71;94279.66;5090188;28;20092;-77
2024/03/12 10:11:09;;;;;;;0.60;0.43;;;;;;;12.84;48.47;94286.22;5088706;28;20031;-76
2024/03/12 10:13:36;;;;;;;1.67;1.13;;;;;;;13.01;48.22;94272.78;5089610;28;20020;-76
2024/03/12 10:16:03;;;;;;;0.77;0.60;;;;;;;13.45;47.76;94266.72;5088852;28;20099;-75
2024/03/12 10:18:37;;;;;;;1.83;0.65;;;;;;;13.74;46.61;94274.31;5090139;28;20054;-75
2024/03/12 10:21:03;;;;;;;0.77;0.60;;;;;;;14.54;45.12;94289.06;5089162;28;20170;-75
2024/03/12 10:23:33;;;;;;;0.95;0.60;;;;;;;15.90;42.26;94271.81;5089546;28;20024;-76
2024/03/12 10:26:25;;;;;;;1.88;0.80;;;;;;;15.87;43.30;94264.47;5089914;28;20024;-76
2024/03/12 10:28:50;;;;;;;1.48;0.60;;;;;;;15.58;42.97;94259.06;5088395;28;20028;-77
2024/03/12 10:31:19;;;;;;;1.25;0.65;;;;;;;15.26;42.46;94255.41;5089900;28;20032;-75
2024/03/12 10:33:48;;;;;;;3.28;1.00;;;;;;;15.41;42.22;94261.63;5088470;28;20425;-77
2024/03/12 10:36:13;;;;;;;1.50;0.65;;;;;;;15.06;42.92;94261.69;5089362;28;20024;-74
2024/03/12 10:38:39;;;;;;;2.10;1.02;;;;;;;16.10;41.42;94261.94;5087985;28;20158;-76
2024/03/12 10:41:17;;;;;;;2.28;0.60;;;;;;;16.39;39.55;94255.38;5088800;28;20102;-76
2024/03/12 10:43:45;;;;;;;2.63;0.90;;;;;;;16.99;39.58;94261.94;5088359;28;20032;-76
2024/03/12 10:46:12;;;;;;;2.15;1.05;;;;;;;17.25;37.92;94262.59;5088164;28;20023;-77
2024/03/12 10:48:40;;;;;;;1.88;0.70;;;;;;;16.96;38.63;94262.91;5087951;28;20039;-76
2024/03/12 10:51:06;;;;;;;2.78;1.00;;;;;;;17.23;38.37;94251.22;5088348;28;20043;-78
2024/03/12 10:53:33;;;;;;;2.22;0.70;;;;;;;16.82;37.67;94258.28;5088956;28;20024;-77
2024/03/12 10:55:58;;;;;;;1.23;0.60;;;;;;;16.67;38.84;94245.28;5086932;28;20020;-76
2024/03/12 10:58:25;;;;;;;1.83;0.55;;;;;;;16.56;38.78;94250.75;5088156;28;20027;-77
2024/03/12 11:00:51;;;;;;;1.38;0.60;;;;;;;16.45;39.30;94248.63;5087985;28;20032;-76
2024/03/12 11:03:23;;;;;;;0.70;0.50;;;;;;;16.21;38.49;94242.63;5087511;28;20032;-76
2024/03/12 11:05:49;;;;;;;1.58;0.40;;;;;;;15.71;40.05;94247.66;5087989;28;20028;-76
2024/03/12 11:08:16;;;;;;;5.55;1.00;;;;;;;16.15;39.35;94244.59;5087493;28;20020;-75
2024/03/12 11:10:43;;;;;;;1.13;0.63;;;;;;;17.25;37.41;94251.47;5088871;28;20113;-77
2024/03/12 11:13:10;;;;;;;0.82;0.40;;;;;;;18.47;35.84;94241.25;5086865;28;20034;-76
2024/03/12 11:15:36;;;;;;;2.45;0.85;;;;;;;20.20;34.21;94242.09;5087668;28;20024;-76
2024/03/12 11:18:02;;;;;;;1.35;0.45;;;;;;;21.27;31.11;94242.00;5087816;28;20517;-76
2024/03/12 11:20:28;;;;;;;2.00;0.73;;;;;;;21.68;30.07;94229.91;5085850;28;20046;-76
2024/03/12 11:22:56;;;;;;;1.85;0.65;;;;;;;21.83;30.10;94223.84;5087507;28;20569;-76
2024/03/12 11:25:32;;;;;;;2.60;0.80;;;;;;;22.36;30.06;94224.16;5087389;28;20082;-76
2024/03/12 11:28:19;;;;;;;3.60;0.90;;;;;;;21.79;30.46;94218.53;5088809;28;20027;-75
2024/03/12 11:30:46;;;;;;;2.33;1.05;;;;;;;22.76;29.78;94223.03;5088686;28;20035;-76
2024/03/12 11:33:38;;;;;;;2.97;1.30;;;;;;;23.01;29.12;94217.31;5087478;28;20027;-76
2024/03/12 11:36:19;;;;;;;1.70;0.55;;;;;;;24.47;26.30;94203.16;5088531;28;20032;-75
2024/03/12 11:38:46;;;;;;;2.90;0.80;;;;;;;25.21;25.82;94208.53;5087651;28;20020;-76
2024/03/12 11:41:13;;;;;;;2.72;0.70;;;;;;;25.83;25.19;94199.19;5088270;28;20040;-75
2024/03/12 11:43:41;;;;;;;3.50;1.40;;;;;;;25.82;25.36;94192.06;5088428;28;20031;-76
2024/03/12 11:46:07;;;;;;;3.05;0.90;;;;;;;25.86;25.15;94200.88;5087062;28;20027;-75
2024/03/12 11:48:34;;;;;;;4.10;1.08;;;;;;;25.09;26.02;94188.38;5088509;28;20020;-77
2024/03/12 11:50:59;;;;;;;5.13;1.77;;;;;;;24.42;27.28;94190.75;5086891;28;20036;-76
2024/03/12 11:53:35;;;;;;;4.03;0.80;;;;;;;23.81;26.99;94182.38;5087978;28;20505;-75
2024/03/12 11:56:07;;;;;;;2.50;0.93;;;;;;;23.32;27.86;94182.81;5086024;28;20176;-77
2024/03/12 11:58:48;;;;;;;1.25;0.60;;;;;;;22.80;28.62;94178.66;5087186;28;20024;-77
2024/03/12 12:01:22;;;;;;;1.83;0.70;;;;;;;22.29;27.76;94174.41;5088254;28;20035;-75
2024/03/12 12:04:14;;;;;;;2.85;0.98;;;;;;;21.99;28.99;94166.91;5086753;28;20521;-76
2024/03/12 12:06:39;;;;;;;1.90;1.30;;;;;;;21.65;30.13;94167.38;5087725;28;20032;-76